sensor_id;sensor_type;location;lat;lon;timestamp;temperature;humidity
32640;DHT22;19049;52.524;11.468;2024-03-08T00:00:34;-1.00;93.90
32640;DHT22;19049;52.524;11.468;2024-03-08T00:03:00;-1.00;94.00
32640;DHT22;19049;52.524;11.468;2024-03-08T00:05:27;-1.00;94.30
32640;DHT22;19049;52.524;11.468;2024-03-08T00:07:53;-1.10;94.00
32640;DHT22;19049;52.524;11.468;2024-03-08T00:10:19;-1.10;93.90
32640;DHT22;19049;52.524;11.468;2024-03-08T00:12:46;-1.10;93.60
32640;DHT22;19049;52.524;11.468;2024-03-08T00:15:16;-1.10;93.70
32640;DHT22;19049;52.524;11.468;2024-03-08T00:17:43;-1.10;94.10
32640;DHT22;19049;52.524;11.468;2024-03-08T00:20:09;-1.00;94.20
32640;DHT22;19049;52.524;11.468;2024-03-08T00:22:35;-1.00;94.40
32640;DHT22;19049;52.524;11.468;2024-03-08T00:25:01;-1.10;94.50
32640;DHT22;19049;52.524;11.468;2024-03-08T00:27:28;-1.10;94.60
32640;DHT22;19049;52.524;11.468;2024-03-08T00:29:57;-1.10;94.60
32640;DHT22;19049;52.524;11.468;2024-03-08T00:32:22;-1.10;94.70
32640;DHT22;19049;52.524;11.468;2024-03-08T00:34:50;-1.10;94.60
32640;DHT22;19049;52.524;11.468;2024-03-08T00:37:17;-1.20;94.70
32640;DHT22;19049;52.524;11.468;2024-03-08T00:39:43;-1.20;94.70
32640;DHT22;19049;52.524;11.468;2024-03-08T00:42:08;-1.20;94.80
32640;DHT22;19049;52.524;11.468;2024-03-08T00:44:34;-1.20;94.40
32640;DHT22;19049;52.524;11.468;2024-03-08T00:46:59;-1.20;94.70
32640;DHT22;19049;52.524;11.468;2024-03-08T00:49:25;-1.20;94.90
32640;DHT22;19049;52.524;11.468;2024-03-08T00:51:50;-1.20;95.00
32640;DHT22;19049;52.524;11.468;2024-03-08T00:54:16;-1.30;95.10
32640;DHT22;19049;52.524;11.468;2024-03-08T00:56:42;-1.30;95.20
32640;DHT22;19049;52.524;11.468;2024-03-08T00:59:07;-1.30;95.50
32640;DHT22;19049;52.524;11.468;2024-03-08T01:01:33;-1.40;95.10
32640;DHT22;19049;52.524;11.468;2024-03-08T01:03:59;-1.40;95.20
32640;DHT22;19049;52.524;11.468;2024-03-08T01:06:24;-1.40;95.20
32640;DHT22;19049;52.524;11.468;2024-03-08T01:08:50;-1.50;94.90
32640;DHT22;19049;52.524;11.468;2024-03-08T01:11:18;-1.50;94.80
32640;DHT22;19049;52.524;11.468;2024-03-08T01:13:44;-1.50;94.60
32640;DHT22;19049;52.524;11.468;2024-03-08T01:16:12;-1.40;95.00
32640;DHT22;19049;52.524;11.468;2024-03-08T01:18:38;-1.40;95.40
32640;DHT22;19049;52.524;11.468;2024-03-08T01:21:04;-1.40;95.30
32640;DHT22;19049;52.524;11.468;2024-03-08T01:23:29;-1.40;95.00
32640;DHT22;19049;52.524;11.468;2024-03-08T01:25:55;-1.40;95.30
32640;DHT22;19049;52.524;11.468;2024-03-08T01:28:24;-1.40;95.70
32640;DHT22;19049;52.524;11.468;2024-03-08T01:30:50;-1.40;95.70
32640;DHT22;19049;52.524;11.468;2024-03-08T01:33:21;-1.40;95.50
32640;DHT22;19049;52.524;11.468;2024-03-08T01:35:48;-1.40;95.60
32640;DHT22;19049;52.524;11.468;2024-03-08T01:38:13;-1.40;95.80
32640;DHT22;19049;52.524;11.468;2024-03-08T01:40:39;-1.50;95.90
32640;DHT22;19049;52.524;11.468;2024-03-08T01:43:41;-1.50;95.80
32640;DHT22;19049;52.524;11.468;2024-03-08T01:46:07;-1.50;95.60
32640;DHT22;19049;52.524;11.468;2024-03-08T01:48:34;-1.50;95.10
32640;DHT22;19049;52.524;11.468;2024-03-08T01:51:00;-1.50;95.20
32640;DHT22;19049;52.524;11.468;2024-03-08T01:53:26;-1.50;95.70
32640;DHT22;19049;52.524;11.468;2024-03-08T01:55:57;-1.50;96.00
32640;DHT22;19049;52.524;11.468;2024-03-08T01:58:23;-1.50;96.20
32640;DHT22;19049;52.524;11.468;2024-03-08T02:00:49;-1.50;96.20
32640;DHT22;19049;52.524;11.468;2024-03-08T02:03:16;-1.50;96.20
32640;DHT22;19049;52.524;11.468;2024-03-08T02:05:41;-1.50;96.30
32640;DHT22;19049;52.524;11.468;2024-03-08T02:08:08;-1.50;96.30
32640;DHT22;19049;52.524;11.468;2024-03-08T02:10:38;-1.60;96.20
32640;DHT22;19049;52.524;11.468;2024-03-08T02:13:04;-1.60;96.20
32640;DHT22;19049;52.524;11.468;2024-03-08T02:15:51;-1.60;96.30
32640;DHT22;19049;52.524;11.468;2024-03-08T02:18:17;-1.60;96.60
32640;DHT22;19049;52.524;11.468;2024-03-08T02:20:43;-1.60;96.40
32640;DHT22;19049;52.524;11.468;2024-03-08T02:23:09;-1.70;96.30
32640;DHT22;19049;52.524;11.468;2024-03-08T02:25:35;-1.70;96.20
32640;DHT22;19049;52.524;11.468;2024-03-08T02:28:01;-1.70;95.80
32640;DHT22;19049;52.524;11.468;2024-03-08T02:30:26;-1.70;95.60
32640;DHT22;19049;52.524;11.468;2024-03-08T02:32:55;-1.70;96.00
32640;DHT22;19049;52.524;11.468;2024-03-08T02:35:20;-1.70;96.30
32640;DHT22;19049;52.524;11.468;2024-03-08T02:37:46;-1.70;96.30
32640;DHT22;19049;52.524;11.468;2024-03-08T02:40:13;-1.70;96.50
32640;DHT22;19049;52.524;11.468;2024-03-08T02:42:39;-1.70;96.50
32640;DHT22;19049;52.524;11.468;2024-03-08T02:45:05;-1.80;96.40
32640;DHT22;19049;52.524;11.468;2024-03-08T02:47:31;-1.80;96.40
32640;DHT22;19049;52.524;11.468;2024-03-08T02:49:57;-1.80;96.50
32640;DHT22;19049;52.524;11.468;2024-03-08T02:52:22;-1.80;96.60
32640;DHT22;19049;52.524;11.468;2024-03-08T02:54:48;-1.80;96.70
32640;DHT22;19049;52.524;11.468;2024-03-08T02:57:14;-1.90;96.80
32640;DHT22;19049;52.524;11.468;2024-03-08T02:59:40;-1.90;96.80
32640;DHT22;19049;52.524;11.468;2024-03-08T03:02:06;-1.90;97.00
32640;DHT22;19049;52.524;11.468;2024-03-08T03:04:32;-2.00;97.00
32640;DHT22;19049;52.524;11.468;2024-03-08T03:07:00;-2.00;97.20
32640;DHT22;19049;52.524;11.468;2024-03-08T03:09:26;-2.00;97.60
32640;DHT22;19049;52.524;11.468;2024-03-08T03:11:53;-2.00;97.40
32640;DHT22;19049;52.524;11.468;2024-03-08T03:14:21;-2.00;97.40
32640;DHT22;19049;52.524;11.468;2024-03-08T03:16:46;-2.00;97.50
32640;DHT22;19049;52.524;11.468;2024-03-08T03:19:12;-2.00;97.50
32640;DHT22;19049;52.524;11.468;2024-03-08T03:21:37;-2.10;97.40
32640;DHT22;19049;52.524;11.468;2024-03-08T03:24:04;-2.10;97.50
32640;DHT22;19049;52.524;11.468;2024-03-08T03:26:36;-2.10;97.50
32640;DHT22;19049;52.524;11.468;2024-03-08T03:29:07;-2.00;97.60
32640;DHT22;19049;52.524;11.468;2024-03-08T03:31:34;-2.10;97.60
32640;DHT22;19049;52.524;11.468;2024-03-08T03:34:00;-2.00;97.10
32640;DHT22;19049;52.524;11.468;2024-03-08T03:36:27;-2.00;97.30
32640;DHT22;19049;52.524;11.468;2024-03-08T03:38:53;-2.00;97.50
32640;DHT22;19049;52.524;11.468;2024-03-08T03:41:30;-2.00;97.00
32640;DHT22;19049;52.524;11.468;2024-03-08T03:43:55;-1.90;96.70
32640;DHT22;19049;52.524;11.468;2024-03-08T03:46:21;-2.00;96.90
32640;DHT22;19049;52.524;11.468;2024-03-08T03:48:46;-1.90;97.10
32640;DHT22;19049;52.524;11.468;2024-03-08T03:51:12;-1.90;97.40
32640;DHT22;19049;52.524;11.468;2024-03-08T03:53:39;-1.80;97.60
32640;DHT22;19049;52.524;11.468;2024-03-08T03:56:05;-1.90;97.60
32640;DHT22;19049;52.524;11.468;2024-03-08T03:58:32;-1.90;97.50
32640;DHT22;19049;52.524;11.468;2024-03-08T04:00:58;-1.90;97.60
32640;DHT22;19049;52.524;11.468;2024-03-08T04:03:23;-1.90;97.60
32640;DHT22;19049;52.524;11.468;2024-03-08T04:05:49;-2.00;97.20
32640;DHT22;19049;52.524;11.468;2024-03-08T04:08:15;-2.00;97.20
32640;DHT22;19049;52.524;11.468;2024-03-08T04:10:41;-2.10;97.00
32640;DHT22;19049;52.524;11.468;2024-03-08T04:13:07;-2.00;97.30
32640;DHT22;19049;52.524;11.468;2024-03-08T04:15:35;-2.10;97.50
32640;DHT22;19049;52.524;11.468;2024-03-08T04:18:00;-2.10;97.90
32640;DHT22;19049;52.524;11.468;2024-03-08T04:20:26;-2.10;97.50
32640;DHT22;19049;52.524;11.468;2024-03-08T04:22:51;-2.10;97.80
32640;DHT22;19049;52.524;11.468;2024-03-08T04:25:17;-2.10;98.10
32640;DHT22;19049;52.524;11.468;2024-03-08T04:27:43;-2.20;98.20
32640;DHT22;19049;52.524;11.468;2024-03-08T04:30:10;-2.20;98.10
32640;DHT22;19049;52.524;11.468;2024-03-08T04:32:35;-2.20;98.00
32640;DHT22;19049;52.524;11.468;2024-03-08T04:35:01;-2.20;98.00
32640;DHT22;19049;52.524;11.468;2024-03-08T04:37:28;-2.30;98.10
32640;DHT22;19049;52.524;11.468;2024-03-08T04:39:57;-2.30;98.10
32640;DHT22;19049;52.524;11.468;2024-03-08T04:42:23;-2.30;98.20
32640;DHT22;19049;52.524;11.468;2024-03-08T04:44:49;-2.30;98.20
32640;DHT22;19049;52.524;11.468;2024-03-08T04:47:14;-2.30;98.30
32640;DHT22;19049;52.524;11.468;2024-03-08T04:49:41;-2.30;98.00
32640;DHT22;19049;52.524;11.468;2024-03-08T04:52:06;-2.30;97.60
32640;DHT22;19049;52.524;11.468;2024-03-08T04:54:32;-2.30;97.40
32640;DHT22;19049;52.524;11.468;2024-03-08T04:56:58;-2.20;97.60
32640;DHT22;19049;52.524;11.468;2024-03-08T04:59:26;-2.20;97.40
32640;DHT22;19049;52.524;11.468;2024-03-08T05:01:52;-2.10;98.00
32640;DHT22;19049;52.524;11.468;2024-03-08T05:04:18;-2.10;97.80
32640;DHT22;19049;52.524;11.468;2024-03-08T05:06:43;-2.10;97.60
32640;DHT22;19049;52.524;11.468;2024-03-08T05:09:09;-2.00;98.00
32640;DHT22;19049;52.524;11.468;2024-03-08T05:11:44;-2.00;98.10
32640;DHT22;19049;52.524;11.468;2024-03-08T05:14:13;-2.00;98.00
32640;DHT22;19049;52.524;11.468;2024-03-08T05:16:45;-2.00;98.20
32640;DHT22;19049;52.524;11.468;2024-03-08T05:19:17;-2.10;97.80
32640;DHT22;19049;52.524;11.468;2024-03-08T05:21:47;-2.10;98.00
32640;DHT22;19049;52.524;11.468;2024-03-08T05:24:13;-2.10;98.10
32640;DHT22;19049;52.524;11.468;2024-03-08T05:26:40;-2.20;98.00
32640;DHT22;19049;52.524;11.468;2024-03-08T05:29:05;-2.20;98.10
32640;DHT22;19049;52.524;11.468;2024-03-08T05:31:42;-2.30;98.10
32640;DHT22;19049;52.524;11.468;2024-03-08T05:34:10;-2.30;98.20
32640;DHT22;19049;52.524;11.468;2024-03-08T05:36:36;-2.40;98.00
32640;DHT22;19049;52.524;11.468;2024-03-08T05:39:01;-2.40;98.20
32640;DHT22;19049;52.524;11.468;2024-03-08T05:41:27;-2.40;98.30
32640;DHT22;19049;52.524;11.468;2024-03-08T05:43:53;-2.40;98.50
32640;DHT22;19049;52.524;11.468;2024-03-08T05:46:19;-2.30;98.40
32640;DHT22;19049;52.524;11.468;2024-03-08T05:48:44;-2.40;98.20
32640;DHT22;19049;52.524;11.468;2024-03-08T05:51:10;-2.30;98.10
32640;DHT22;19049;52.524;11.468;2024-03-08T05:53:35;-2.30;98.50
32640;DHT22;19049;52.524;11.468;2024-03-08T05:56:01;-2.30;99.00
32640;DHT22;19049;52.524;11.468;2024-03-08T05:58:27;-2.20;98.90
32640;DHT22;19049;52.524;11.468;2024-03-08T06:00:55;-2.30;98.60
32640;DHT22;19049;52.524;11.468;2024-03-08T06:03:21;-2.20;98.70
32640;DHT22;19049;52.524;11.468;2024-03-08T06:05:48;-2.30;98.70
32640;DHT22;19049;52.524;11.468;2024-03-08T06:08:14;-2.20;98.80
32640;DHT22;19049;52.524;11.468;2024-03-08T06:10:40;-2.20;98.90
32640;DHT22;19049;52.524;11.468;2024-03-08T06:13:06;-2.20;98.90
32640;DHT22;19049;52.524;11.468;2024-03-08T06:15:32;-2.10;98.90
32640;DHT22;19049;52.524;11.468;2024-03-08T06:17:57;-2.10;99.00
32640;DHT22;19049;52.524;11.468;2024-03-08T06:20:23;-2.00;99.30
32640;DHT22;19049;52.524;11.468;2024-03-08T06:22:52;-1.90;99.50
32640;DHT22;19049;52.524;11.468;2024-03-08T06:25:17;-1.70;99.60
32640;DHT22;19049;52.524;11.468;2024-03-08T06:27:43;-1.50;99.80
32640;DHT22;19049;52.524;11.468;2024-03-08T06:30:09;-1.30;99.90
32640;DHT22;19049;52.524;11.468;2024-03-08T06:32:38;-1.10;99.90
32640;DHT22;19049;52.524;11.468;2024-03-08T06:35:05;-0.90;99.90
32640;DHT22;19049;52.524;11.468;2024-03-08T06:37:32;-0.60;99.90
32640;DHT22;19049;52.524;11.468;2024-03-08T06:39:58;-0.30;99.90
32640;DHT22;19049;52.524;11.468;2024-03-08T06:42:23;0.00;99.90
32640;DHT22;19049;52.524;11.468;2024-03-08T06:44:49;0.20;99.90
32640;DHT22;19049;52.524;11.468;2024-03-08T06:47:17;0.50;99.90
32640;DHT22;19049;52.524;11.468;2024-03-08T06:49:43;0.80;99.90
32640;DHT22;19049;52.524;11.468;2024-03-08T06:52:10;1.10;99.90
32640;DHT22;19049;52.524;11.468;2024-03-08T06:54:36;1.30;99.90
32640;DHT22;19049;52.524;11.468;2024-03-08T06:57:05;1.60;99.90
32640;DHT22;19049;52.524;11.468;2024-03-08T06:59:31;1.90;99.90
32640;DHT22;19049;52.524;11.468;2024-03-08T07:01:57;2.20;99.90
32640;DHT22;19049;52.524;11.468;2024-03-08T07:04:25;2.40;99.80
32640;DHT22;19049;52.524;11.468;2024-03-08T07:06:54;2.70;99.60
32640;DHT22;19049;52.524;11.468;2024-03-08T07:09:19;3.00;99.50
32640;DHT22;19049;52.524;11.468;2024-03-08T07:11:45;3.20;99.40
32640;DHT22;19049;52.524;11.468;2024-03-08T07:14:12;3.50;99.30
32640;DHT22;19049;52.524;11.468;2024-03-08T07:16:37;3.70;99.20
32640;DHT22;19049;52.524;11.468;2024-03-08T07:19:04;4.00;99.20
32640;DHT22;19049;52.524;11.468;2024-03-08T07:21:30;4.20;99.00
32640;DHT22;19049;52.524;11.468;2024-03-08T07:23:56;4.40;98.90
32640;DHT22;19049;52.524;11.468;2024-03-08T07:26:24;4.70;98.70
32640;DHT22;19049;52.524;11.468;2024-03-08T07:28:50;4.90;98.60
32640;DHT22;19049;52.524;11.468;2024-03-08T07:31:16;5.10;98.30
32640;DHT22;19049;52.524;11.468;2024-03-08T07:33:50;5.30;98.10
32640;DHT22;19049;52.524;11.468;2024-03-08T07:36:16;5.60;97.80
32640;DHT22;19049;52.524;11.468;2024-03-08T07:38:41;5.80;97.70
32640;DHT22;19049;52.524;11.468;2024-03-08T07:41:07;6.00;97.50
32640;DHT22;19049;52.524;11.468;2024-03-08T07:43:32;6.10;97.30
32640;DHT22;19049;52.524;11.468;2024-03-08T07:45:58;6.30;97.10
32640;DHT22;19049;52.524;11.468;2024-03-08T07:48:23;6.50;97.00
32640;DHT22;19049;52.524;11.468;2024-03-08T07:50:49;6.70;96.30
32640;DHT22;19049;52.524;11.468;2024-03-08T07:53:15;6.90;96.30
32640;DHT22;19049;52.524;11.468;2024-03-08T07:55:41;7.10;96.10
32640;DHT22;19049;52.524;11.468;2024-03-08T07:58:08;7.20;96.10
32640;DHT22;19049;52.524;11.468;2024-03-08T08:00:36;7.40;95.60
32640;DHT22;19049;52.524;11.468;2024-03-08T08:03:02;7.60;95.30
32640;DHT22;19049;52.524;11.468;2024-03-08T08:05:28;7.80;94.90
32640;DHT22;19049;52.524;11.468;2024-03-08T08:07:53;7.90;94.60
32640;DHT22;19049;52.524;11.468;2024-03-08T08:10:19;8.10;94.20
32640;DHT22;19049;52.524;11.468;2024-03-08T08:12:51;8.30;93.80
32640;DHT22;19049;52.524;11.468;2024-03-08T08:15:19;8.40;92.90
32640;DHT22;19049;52.524;11.468;2024-03-08T08:17:45;8.50;92.50
32640;DHT22;19049;52.524;11.468;2024-03-08T08:20:12;8.50;92.20
32640;DHT22;19049;52.524;11.468;2024-03-08T08:22:41;8.60;92.00
32640;DHT22;19049;52.524;11.468;2024-03-08T08:25:08;8.70;91.80
32640;DHT22;19049;52.524;11.468;2024-03-08T08:27:34;8.80;91.50
32640;DHT22;19049;52.524;11.468;2024-03-08T08:30:02;8.90;90.80
32640;DHT22;19049;52.524;11.468;2024-03-08T08:32:28;9.00;91.00
32640;DHT22;19049;52.524;11.468;2024-03-08T08:34:53;9.20;90.30
32640;DHT22;19049;52.524;11.468;2024-03-08T08:37:19;9.30;89.30
32640;DHT22;19049;52.524;11.468;2024-03-08T08:39:44;9.30;88.70
32640;DHT22;19049;52.524;11.468;2024-03-08T08:42:10;9.40;88.80
32640;DHT22;19049;52.524;11.468;2024-03-08T08:44:36;9.50;87.80
32640;DHT22;19049;52.524;11.468;2024-03-08T08:47:02;9.60;88.50
32640;DHT22;19049;52.524;11.468;2024-03-08T08:49:29;9.70;88.10
32640;DHT22;19049;52.524;11.468;2024-03-08T08:51:56;9.80;87.90
32640;DHT22;19049;52.524;11.468;2024-03-08T08:54:23;10.00;86.30
32640;DHT22;19049;52.524;11.468;2024-03-08T08:56:50;10.10;84.80
32640;DHT22;19049;52.524;11.468;2024-03-08T08:59:16;10.20;84.20
32640;DHT22;19049;52.524;11.468;2024-03-08T09:01:47;10.30;82.10
32640;DHT22;19049;52.524;11.468;2024-03-08T09:04:13;10.50;80.10
32640;DHT22;19049;52.524;11.468;2024-03-08T09:06:39;10.60;77.10
32640;DHT22;19049;52.524;11.468;2024-03-08T09:09:06;10.60;78.50
32640;DHT22;19049;52.524;11.468;2024-03-08T09:11:34;10.60;78.80
32640;DHT22;19049;52.524;11.468;2024-03-08T09:14:00;10.70;79.00
32640;DHT22;19049;52.524;11.468;2024-03-08T09:16:27;10.80;80.00
32640;DHT22;19049;52.524;11.468;2024-03-08T09:18:53;10.90;77.50
32640;DHT22;19049;52.524;11.468;2024-03-08T09:21:18;11.10;77.30
32640;DHT22;19049;52.524;11.468;2024-03-08T09:23:44;11.20;75.60
32640;DHT22;19049;52.524;11.468;2024-03-08T09:26:10;11.30;72.80
32640;DHT22;19049;52.524;11.468;2024-03-08T09:28:38;11.40;71.60
32640;DHT22;19049;52.524;11.468;2024-03-08T09:31:04;11.40;69.50
32640;DHT22;19049;52.524;11.468;2024-03-08T09:33:30;11.40;71.00
32640;DHT22;19049;52.524;11.468;2024-03-08T09:35:56;11.40;71.50
32640;DHT22;19049;52.524;11.468;2024-03-08T09:38:25;11.50;70.30
32640;DHT22;19049;52.524;11.468;2024-03-08T09:40:51;11.50;70.20
32640;DHT22;19049;52.524;11.468;2024-03-08T09:43:18;11.60;69.60
32640;DHT22;19049;52.524;11.468;2024-03-08T09:45:45;11.60;70.50
32640;DHT22;19049;52.524;11.468;2024-03-08T09:48:11;11.70;69.80
32640;DHT22;19049;52.524;11.468;2024-03-08T09:50:38;11.80;69.60
32640;DHT22;19049;52.524;11.468;2024-03-08T09:53:04;11.90;68.10
32640;DHT22;19049;52.524;11.468;2024-03-08T09:55:35;12.00;68.30
32640;DHT22;19049;52.524;11.468;2024-03-08T09:58:05;12.00;67.60
32640;DHT22;19049;52.524;11.468;2024-03-08T10:00:49;12.20;66.60
32640;DHT22;19049;52.524;11.468;2024-03-08T10:03:15;12.20;66.30
32640;DHT22;19049;52.524;11.468;2024-03-08T10:05:41;12.30;64.40
32640;DHT22;19049;52.524;11.468;2024-03-08T10:08:07;12.30;64.10
32640;DHT22;19049;52.524;11.468;2024-03-08T10:10:37;12.30;63.70
32640;DHT22;19049;52.524;11.468;2024-03-08T10:13:06;12.30;63.50
32640;DHT22;19049;52.524;11.468;2024-03-08T10:15:32;12.30;64.20
32640;DHT22;19049;52.524;11.468;2024-03-08T10:17:58;12.30;65.30
32640;DHT22;19049;52.524;11.468;2024-03-08T10:20:24;12.40;61.90
32640;DHT22;19049;52.524;11.468;2024-03-08T10:22:50;12.40;63.00
32640;DHT22;19049;52.524;11.468;2024-03-08T10:25:16;12.40;62.40
32640;DHT22;19049;52.524;11.468;2024-03-08T10:27:42;12.50;62.30
32640;DHT22;19049;52.524;11.468;2024-03-08T10:30:17;12.50;63.60
32640;DHT22;19049;52.524;11.468;2024-03-08T10:32:47;12.50;63.30
32640;DHT22;19049;52.524;11.468;2024-03-08T10:35:13;12.60;63.40
32640;DHT22;19049;52.524;11.468;2024-03-08T10:37:50;12.70;64.10
32640;DHT22;19049;52.524;11.468;2024-03-08T10:40:25;12.80;63.60
32640;DHT22;19049;52.524;11.468;2024-03-08T10:42:59;12.90;63.60
32640;DHT22;19049;52.524;11.468;2024-03-08T10:45:34;13.00;64.40
32640;DHT22;19049;52.524;11.468;2024-03-08T10:50:42;13.20;58.40
32640;DHT22;19049;52.524;11.468;2024-03-08T10:53:11;13.20;58.80
32640;DHT22;19049;52.524;11.468;2024-03-08T10:55:40;13.20;58.40
32640;DHT22;19049;52.524;11.468;2024-03-08T10:58:06;13.10;58.90
32640;DHT22;19049;52.524;11.468;2024-03-08T11:00:33;13.10;59.70
32640;DHT22;19049;52.524;11.468;2024-03-08T11:02:59;13.10;59.00
32640;DHT22;19049;52.524;11.468;2024-03-08T11:05:41;13.10;59.50
32640;DHT22;19049;52.524;11.468;2024-03-08T11:08:16;13.20;60.60
32640;DHT22;19049;52.524;11.468;2024-03-08T11:10:48;13.20;59.00
32640;DHT22;19049;52.524;11.468;2024-03-08T11:13:33;13.20;57.30
32640;DHT22;19049;52.524;11.468;2024-03-08T11:15:59;13.20;58.20
32640;DHT22;19049;52.524;11.468;2024-03-08T11:18:27;13.20;59.00
32640;DHT22;19049;52.524;11.468;2024-03-08T11:20:55;13.30;59.30
32640;DHT22;19049;52.524;11.468;2024-03-08T11:23:23;13.40;58.40
32640;DHT22;19049;52.524;11.468;2024-03-08T11:25:48;13.50;57.00
32640;DHT22;19049;52.524;11.468;2024-03-08T11:28:22;13.60;55.60
32640;DHT22;19049;52.524;11.468;2024-03-08T11:33:28;13.60;56.30
32640;DHT22;19049;52.524;11.468;2024-03-08T11:36:09;13.60;55.70
32640;DHT22;19049;52.524;11.468;2024-03-08T11:38:46;13.60;55.80
32640;DHT22;19049;52.524;11.468;2024-03-08T11:41:18;13.60;56.20
32640;DHT22;19049;52.524;11.468;2024-03-08T11:43:45;13.60;56.40
32640;DHT22;19049;52.524;11.468;2024-03-08T11:46:11;13.70;55.90
32640;DHT22;19049;52.524;11.468;2024-03-08T11:48:44;13.70;55.30
32640;DHT22;19049;52.524;11.468;2024-03-08T11:51:13;13.70;56.50
32640;DHT22;19049;52.524;11.468;2024-03-08T11:53:39;13.80;54.70
32640;DHT22;19049;52.524;11.468;2024-03-08T11:56:07;13.80;54.30
32640;DHT22;19049;52.524;11.468;2024-03-08T11:58:33;13.90;55.10
32640;DHT22;19049;52.524;11.468;2024-03-08T12:01:05;13.90;54.90
32640;DHT22;19049;52.524;11.468;2024-03-08T12:03:42;14.00;54.30
32640;DHT22;19049;52.524;11.468;2024-03-08T12:06:11;14.10;54.40
32640;DHT22;19049;52.524;11.468;2024-03-08T12:08:39;14.10;55.30
32640;DHT22;19049;52.524;11.468;2024-03-08T12:11:05;14.20;54.00
32640;DHT22;19049;52.524;11.468;2024-03-08T12:13:32;14.30;52.90
32640;DHT22;19049;52.524;11.468;2024-03-08T12:15:59;14.30;52.80
32640;DHT22;19049;52.524;11.468;2024-03-08T12:18:28;14.30;52.90
32640;DHT22;19049;52.524;11.468;2024-03-08T12:21:11;14.30;53.50
32640;DHT22;19049;52.524;11.468;2024-03-08T12:23:38;14.30;53.40
32640;DHT22;19049;52.524;11.468;2024-03-08T12:26:23;14.50;53.00
32640;DHT22;19049;52.524;11.468;2024-03-08T12:28:49;14.60;51.60
32640;DHT22;19049;52.524;11.468;2024-03-08T12:31:16;14.60;51.00
32640;DHT22;19049;52.524;11.468;2024-03-08T12:33:52;14.70;52.30
32640;DHT22;19049;52.524;11.468;2024-03-08T12:36:18;14.80;52.20
32640;DHT22;19049;52.524;11.468;2024-03-08T12:38:48;14.90;51.00
32640;DHT22;19049;52.524;11.468;2024-03-08T12:41:19;14.90;50.60
32640;DHT22;19049;52.524;11.468;2024-03-08T12:43:45;15.00;50.20
32640;DHT22;19049;52.524;11.468;2024-03-08T12:46:20;15.00;50.10
32640;DHT22;19049;52.524;11.468;2024-03-08T12:48:46;15.00;49.60
32640;DHT22;19049;52.524;11.468;2024-03-08T12:51:18;15.00;48.90
32640;DHT22;19049;52.524;11.468;2024-03-08T12:53:44;15.00;49.30
32640;DHT22;19049;52.524;11.468;2024-03-08T12:56:11;15.00;49.30
32640;DHT22;19049;52.524;11.468;2024-03-08T12:58:37;15.00;49.80
32640;DHT22;19049;52.524;11.468;2024-03-08T13:01:03;15.00;49.10
32640;DHT22;19049;52.524;11.468;2024-03-08T13:03:36;15.10;48.00
32640;DHT22;19049;52.524;11.468;2024-03-08T13:06:06;15.20;48.80
32640;DHT22;19049;52.524;11.468;2024-03-08T13:08:37;15.20;48.30
32640;DHT22;19049;52.524;11.468;2024-03-08T13:11:05;15.30;48.90
32640;DHT22;19049;52.524;11.468;2024-03-08T13:13:30;15.30;47.00
32640;DHT22;19049;52.524;11.468;2024-03-08T13:15:56;15.30;48.10
32640;DHT22;19049;52.524;11.468;2024-03-08T13:18:22;15.30;48.10
32640;DHT22;19049;52.524;11.468;2024-03-08T13:20:48;15.40;47.30
32640;DHT22;19049;52.524;11.468;2024-03-08T13:23:17;15.50;46.50
32640;DHT22;19049;52.524;11.468;2024-03-08T13:25:43;15.60;46.30
32640;DHT22;19049;52.524;11.468;2024-03-08T13:28:09;15.50;46.00
32640;DHT22;19049;52.524;11.468;2024-03-08T13:30:34;15.50;46.70
32640;DHT22;19049;52.524;11.468;2024-03-08T13:33:00;15.50;46.30
32640;DHT22;19049;52.524;11.468;2024-03-08T13:35:26;15.50;46.80
32640;DHT22;19049;52.524;11.468;2024-03-08T13:37:53;15.60;46.60
32640;DHT22;19049;52.524;11.468;2024-03-08T13:40:19;15.70;46.20
32640;DHT22;19049;52.524;11.468;2024-03-08T13:42:46;15.80;46.30
32640;DHT22;19049;52.524;11.468;2024-03-08T13:45:12;15.80;45.70
32640;DHT22;19049;52.524;11.468;2024-03-08T13:47:41;15.90;46.20
32640;DHT22;19049;52.524;11.468;2024-03-08T13:50:08;16.00;46.20
32640;DHT22;19049;52.524;11.468;2024-03-08T13:52:37;16.10;45.50
32640;DHT22;19049;52.524;11.468;2024-03-08T13:55:04;16.10;45.40
32640;DHT22;19049;52.524;11.468;2024-03-08T13:57:30;16.20;45.50
32640;DHT22;19049;52.524;11.468;2024-03-08T13:59:57;16.20;45.50
32640;DHT22;19049;52.524;11.468;2024-03-08T14:02:23;16.30;45.10
32640;DHT22;19049;52.524;11.468;2024-03-08T14:04:56;16.30;44.50
32640;DHT22;19049;52.524;11.468;2024-03-08T14:07:22;16.40;44.60
32640;DHT22;19049;52.524;11.468;2024-03-08T14:09:48;16.40;44.90
32640;DHT22;19049;52.524;11.468;2024-03-08T14:12:14;16.40;44.30
32640;DHT22;19049;52.524;11.468;2024-03-08T14:14:43;16.50;43.50
32640;DHT22;19049;52.524;11.468;2024-03-08T14:17:10;16.40;43.80
32640;DHT22;19049;52.524;11.468;2024-03-08T14:19:36;16.40;44.10
32640;DHT22;19049;52.524;11.468;2024-03-08T14:22:02;16.40;44.00
32640;DHT22;19049;52.524;11.468;2024-03-08T14:24:32;16.40;43.40
32640;DHT22;19049;52.524;11.468;2024-03-08T14:27:01;16.40;43.20
32640;DHT22;19049;52.524;11.468;2024-03-08T14:29:31;16.30;43.80
32640;DHT22;19049;52.524;11.468;2024-03-08T14:31:58;16.30;43.20
32640;DHT22;19049;52.524;11.468;2024-03-08T14:34:25;16.30;43.10
32640;DHT22;19049;52.524;11.468;2024-03-08T14:36:55;16.20;42.90
32640;DHT22;19049;52.524;11.468;2024-03-08T14:39:21;16.20;43.30
32640;DHT22;19049;52.524;11.468;2024-03-08T14:41:52;16.10;43.20
32640;DHT22;19049;52.524;11.468;2024-03-08T14:44:22;16.10;43.60
32640;DHT22;19049;52.524;11.468;2024-03-08T14:46:54;16.00;43.20
32640;DHT22;19049;52.524;11.468;2024-03-08T14:49:20;16.00;43.50
32640;DHT22;19049;52.524;11.468;2024-03-08T14:51:47;15.90;43.60
32640;DHT22;19049;52.524;11.468;2024-03-08T14:54:12;15.90;44.00
32640;DHT22;19049;52.524;11.468;2024-03-08T14:56:38;15.90;44.70
32640;DHT22;19049;52.524;11.468;2024-03-08T14:59:06;15.90;44.10
32640;DHT22;19049;52.524;11.468;2024-03-08T15:01:32;15.80;44.50
32640;DHT22;19049;52.524;11.468;2024-03-08T15:04:04;15.80;44.50
32640;DHT22;19049;52.524;11.468;2024-03-08T15:06:42;15.90;44.40
32640;DHT22;19049;52.524;11.468;2024-03-08T15:09:08;15.80;44.90
32640;DHT22;19049;52.524;11.468;2024-03-08T15:11:45;15.80;44.70
32640;DHT22;19049;52.524;11.468;2024-03-08T15:14:10;15.80;44.60
32640;DHT22;19049;52.524;11.468;2024-03-08T15:16:37;15.70;44.70
32640;DHT22;19049;52.524;11.468;2024-03-08T15:19:05;15.70;45.20
32640;DHT22;19049;52.524;11.468;2024-03-08T15:21:31;15.60;45.10
32640;DHT22;19049;52.524;11.468;2024-03-08T15:23:57;15.50;45.10